Elisabeth — LHEA — position and weather

sailwx.info

Track history (hours):
 
Tides and Currents Weather Stations Pressure Air Temp Water Temp Dewpoint Dewpoint Depression Visibility Wind Speed Wind Dir Waves Ship Positions

Elisabeth

Last reported at 2015-Mar-09 12:12 UTC. Time now 2015-Mar-31 22:08 UTC.
Position N 64°45' E 010°59'.
Warning: this ship's position is 22 days out of date.

Length 50 m.

Type: Fishing. MMSI: 259166000.

Date/timePositionNaut miles runAvg speedWind from/ knotsBaromVisibWave heightAir tempDewpointWater temp
2015-Mar-09 12:12N 64°45' E 010°59'610.2
2015-Mar-09 11:34N 64°49' E 011°09'10 9.8
2015-Mar-09 10:33N 64°56' E 011°26'1010.5
2015-Mar-09 09:33N 65°03' E 011°44'1110.8
2015-Mar-09 08:31N 65°13' E 011°54'60 9.9
2015-Mar-09 02:30N 66°09' E 012°49'1110.7
2015-Mar-09 01:28N 66°20' E 012°57'38 8.9
2015-Mar-08 21:12N 66°55' E 013°29'6 8.1
2015-Mar-08 20:24N 67°00' E 013°40'9 9.6
2015-Mar-08 19:30N 67°06' E 013°57'8 8.1
2015-Mar-08 18:34N 67°13' E 013°52'9 9.0
2015-Mar-08 17:33N 67°22' E 013°47'29 0.8
2015-Mar-07 05:24N 67°48' E 014°22'14612.0
2015-Mar-06 17:14N 69°35' E 018°51'5 7.2
2015-Mar-06 16:33N 69°39' E 018°59'1 0.0
2015-Mar-05 12:34N 69°39' E 018°58'1 1.0
2015-Mar-05 11:34N 69°38' E 018°57'0 0.0
2015-Mar-05 10:34N 69°38' E 018°57'0 0.0
2015-Mar-05 09:33N 69°38' E 018°57'0 0.0
2015-Mar-05 08:34N 69°38' E 018°57'0 0.0
2015-Mar-05 07:33N 69°38' E 018°57'0 0.0
2015-Mar-05 06:33N 69°38' E 018°57'0 0.0
2015-Mar-05 05:34N 69°38' E 018°57'0 0.0
2015-Mar-05 04:34N 69°38' E 018°57'0 0.0
2015-Mar-05 03:34N 69°38' E 018°57'0 0.0
2015-Mar-05 02:33N 69°38' E 018°57'0 0.0
2015-Mar-05 01:34N 69°38' E 018°57'0 0.0
2015-Mar-05 00:34N 69°38' E 018°57'0 0.0
2015-Mar-04 23:34N 69°38' E 018°57'0 0.0
2015-Mar-04 22:33N 69°38' E 018°57'0 0.0
2015-Mar-04 21:33N 69°38' E 018°57'0 0.0
2015-Mar-04 20:34N 69°38' E 018°57'0 0.0
2015-Mar-04 19:34N 69°38' E 018°57'0 0.0
2015-Mar-04 18:34N 69°38' E 018°57'0 0.0
2015-Mar-04 17:34N 69°38' E 018°57'0 0.0
2015-Mar-04 16:34N 69°38' E 018°57'0 0.0
2015-Mar-04 15:33N 69°38' E 018°57'0 0.0
2015-Mar-04 14:33N 69°38' E 018°57'0 0.0
2015-Mar-04 13:33N 69°38' E 018°57'0 0.0
2015-Mar-04 12:34N 69°38' E 018°57'0 0.0
2015-Mar-04 11:34N 69°38' E 018°57'0 0.0
2015-Mar-04 10:33N 69°38' E 018°57'0 0.0
2015-Mar-04 09:34N 69°38' E 018°57'0 0.0
2015-Mar-04 08:34N 69°38' E 018°57'0 0.0
2015-Mar-04 07:33N 69°38' E 018°57'0 0.0
2015-Mar-04 06:34N 69°38' E 018°57'0 0.0
2015-Mar-04 05:34N 69°38' E 018°57'0 0.0
2015-Mar-04 04:34N 69°38' E 018°57'0 0.0
2015-Mar-04 03:33N 69°38' E 018°57'0 0.0
2015-Mar-04 02:34N 69°38' E 018°57'0 0.0
2015-Mar-04 01:34N 69°38' E 018°57'0 0.0
2015-Mar-04 00:34N 69°38' E 018°57'0 0.0
2015-Mar-03 23:34N 69°38' E 018°57'0 0.0
2015-Mar-03 22:34N 69°38' E 018°57'0 0.0
2015-Mar-03 21:34N 69°38' E 018°57'0 0.0
2015-Mar-03 20:34N 69°38' E 018°57'0 0.0
2015-Mar-03 19:34N 69°38' E 018°57'146 4.5
2015-Mar-02 11:04N 67°50' E 014°26'712.6
2015-Mar-02 10:32N 67°44' E 014°18'1212.7
2015-Mar-02 09:33N 67°32' E 014°21'1211.9
2015-Mar-02 08:34N 67°20' E 014°20'1313.2
2015-Mar-02 07:34N 67°09' E 014°02'1512.6
2015-Mar-02 06:22N 66°58' E 013°35'10912.4
2015-Mar-01 21:30N 65°16' E 011°57'1212.9
2015-Mar-01 20:33N 65°05' E 011°46'1212.3
2015-Mar-01 19:33N 64°56' E 011°26'7 6.6
2015-Mar-01 18:34N 64°52' E 011°14'1110.6
2015-Mar-01 17:30N 64°44' E 010°55'  
Track history (hours):
 
Tides and Currents Weather Stations Pressure Air Temp Water Temp Dewpoint Dewpoint Depression Visibility Wind Speed Wind Dir Waves Ship Positions

Elisabeth

Last reported at 2015-Mar-09 12:12 UTC. Time now 2015-Mar-31 22:08 UTC.
Position N 64°45' E 010°59'.
Warning: this ship's position is 22 days out of date.

Length 50 m.

Type: Fishing. MMSI: 259166000.

Date/timePositionNaut miles runAvg speedWind from/ knotsBaromVisibWave heightAir tempDewpointWater temp
2015-Mar-09 12:12N 64°45' E 010°59'610.2
2015-Mar-09 11:34N 64°49' E 011°09'10 9.8
2015-Mar-09 10:33N 64°56' E 011°26'1010.5
2015-Mar-09 09:33N 65°03' E 011°44'1110.8
2015-Mar-09 08:31N 65°13' E 011°54'60 9.9
2015-Mar-09 02:30N 66°09' E 012°49'1110.7
2015-Mar-09 01:28N 66°20' E 012°57'38 8.9
2015-Mar-08 21:12N 66°55' E 013°29'6 8.1
2015-Mar-08 20:24N 67°00' E 013°40'9 9.6
2015-Mar-08 19:30N 67°06' E 013°57'8 8.1
2015-Mar-08 18:34N 67°13' E 013°52'9 9.0
2015-Mar-08 17:33N 67°22' E 013°47'29 0.8
2015-Mar-07 05:24N 67°48' E 014°22'14612.0
2015-Mar-06 17:14N 69°35' E 018°51'5 7.2
2015-Mar-06 16:33N 69°39' E 018°59'1 0.0
2015-Mar-05 12:34N 69°39' E 018°58'1 1.0
2015-Mar-05 11:34N 69°38' E 018°57'0 0.0
2015-Mar-05 10:34N 69°38' E 018°57'0 0.0
2015-Mar-05 09:33N 69°38' E 018°57'0 0.0
2015-Mar-05 08:34N 69°38' E 018°57'0 0.0
2015-Mar-05 07:33N 69°38' E 018°57'0 0.0
2015-Mar-05 06:33N 69°38' E 018°57'0 0.0
2015-Mar-05 05:34N 69°38' E 018°57'0 0.0
2015-Mar-05 04:34N 69°38' E 018°57'0 0.0
2015-Mar-05 03:34N 69°38' E 018°57'0 0.0
2015-Mar-05 02:33N 69°38' E 018°57'0 0.0
2015-Mar-05 01:34N 69°38' E 018°57'0 0.0
2015-Mar-05 00:34N 69°38' E 018°57'0 0.0
2015-Mar-04 23:34N 69°38' E 018°57'0 0.0
2015-Mar-04 22:33N 69°38' E 018°57'0 0.0
2015-Mar-04 21:33N 69°38' E 018°57'0 0.0
2015-Mar-04 20:34N 69°38' E 018°57'0 0.0
2015-Mar-04 19:34N 69°38' E 018°57'0 0.0
2015-Mar-04 18:34N 69°38' E 018°57'0 0.0
2015-Mar-04 17:34N 69°38' E 018°57'0 0.0
2015-Mar-04 16:34N 69°38' E 018°57'0 0.0
2015-Mar-04 15:33N 69°38' E 018°57'0 0.0
2015-Mar-04 14:33N 69°38' E 018°57'0 0.0
2015-Mar-04 13:33N 69°38' E 018°57'0 0.0
2015-Mar-04 12:34N 69°38' E 018°57'0 0.0
2015-Mar-04 11:34N 69°38' E 018°57'0 0.0
2015-Mar-04 10:33N 69°38' E 018°57'0 0.0
2015-Mar-04 09:34N 69°38' E 018°57'0 0.0
2015-Mar-04 08:34N 69°38' E 018°57'0 0.0
2015-Mar-04 07:33N 69°38' E 018°57'0 0.0
2015-Mar-04 06:34N 69°38' E 018°57'0 0.0
2015-Mar-04 05:34N 69°38' E 018°57'0 0.0
2015-Mar-04 04:34N 69°38' E 018°57'0 0.0
2015-Mar-04 03:33N 69°38' E 018°57'0 0.0
2015-Mar-04 02:34N 69°38' E 018°57'0 0.0
2015-Mar-04 01:34N 69°38' E 018°57'0 0.0
2015-Mar-04 00:34N 69°38' E 018°57'0 0.0
2015-Mar-03 23:34N 69°38' E 018°57'0 0.0
2015-Mar-03 22:34N 69°38' E 018°57'0 0.0
2015-Mar-03 21:34N 69°38' E 018°57'0 0.0
2015-Mar-03 20:34N 69°38' E 018°57'0 0.0
2015-Mar-03 19:34N 69°38' E 018°57'146 4.5
2015-Mar-02 11:04N 67°50' E 014°26'712.6
2015-Mar-02 10:32N 67°44' E 014°18'1212.7
2015-Mar-02 09:33N 67°32' E 014°21'1211.9
2015-Mar-02 08:34N 67°20' E 014°20'1313.2
2015-Mar-02 07:34N 67°09' E 014°02'1512.6
2015-Mar-02 06:22N 66°58' E 013°35'10912.4
2015-Mar-01 21:30N 65°16' E 011°57'1212.9
2015-Mar-01 20:33N 65°05' E 011°46'1212.3
2015-Mar-01 19:33N 64°56' E 011°26'7 6.6
2015-Mar-01 18:34N 64°52' E 011°14'1110.6
2015-Mar-01 17:30N 64°44' E 010°55'  

Dump ship's entire track history